Time;durP1;ratioP1;P1;durP2;ratioP2;P2;SDS_P1;SDS_P2;PMS_P1;PMS_P2;Temp;Humidity;BMP_temperature;BMP_pressure;BME280_temperature;BME280_humidity;BME280_pressure;Samples;Min_cycle;Max_cycle;Signal;HPM_P1;HPM_P2
2023/05/11 00:01:06;;;;;;;;;;;;;;;17.09;52.29;101993.72;5061413;28;19927;-94
2023/05/11 00:03:32;;;;;;;;;;;;;;;17.05;52.26;101997.94;5067548;28;19920;-94
2023/05/11 00:06:09;;;;;;;;;;;;;;;17.14;51.76;101996.56;5094333;28;19973;-95
2023/05/11 00:08:46;;;;;;;;;;;;;;;17.12;51.70;101996.50;5050693;28;19924;-93
2023/05/11 00:11:29;;;;;;;;;;;;;;;17.08;51.77;101999.81;5065398;28;20019;-95
2023/05/11 00:14:00;;;;;;;;;;;;;;;17.10;51.49;101992.88;5060288;28;19924;-92
2023/05/11 00:16:39;;;;;;;;;;;;;;;17.03;51.72;102001.34;5096288;28;20432;-96
2023/05/11 00:19:08;;;;;;;;;;;;;;;17.04;51.67;102001.44;5051673;28;19928;-96
2023/05/11 00:21:38;;;;;;;;;;;;;;;16.97;51.83;102006.34;5077907;28;19916;-95
2023/05/11 00:24:07;;;;;;;;;;;;;;;17.06;51.54;101993.59;5057583;28;19999;-95
2023/05/11 00:29:36;;;;;;;;;;;;;;;17.05;52.15;102004.97;5075883;28;19927;-94
2023/05/11 00:32:04;;;;;;;;;;;;;;;16.82;54.38;102004.75;5077414;28;19912;-96
2023/05/11 00:34:30;;;;;;;;;;;;;;;16.60;55.74;101999.25;5098114;28;19920;-90
2023/05/11 00:36:56;;;;;;;;;;;;;;;16.44;56.56;101990.56;5071662;28;20403;-94
2023/05/11 00:42:41;;;;;;;;;;;;;;;16.81;54.14;102002.06;5094423;28;19927;-94
2023/05/11 00:45:15;;;;;;;;;;;;;;;16.92;52.94;102006.13;5058245;28;19969;-94
2023/05/11 00:47:40;;;;;;;;;;;;;;;16.96;52.63;102007.19;5058922;28;20290;-95
2023/05/11 00:53:10;;;;;;;;;;;;;;;16.94;52.15;102006.19;5091800;28;19938;-94
2023/05/11 00:55:43;;;;;;;;;;;;;;;16.97;52.13;102004.59;5048969;28;19931;-91
2023/05/11 01:01:06;;;;;;;;;;;;;;;16.92;51.69;101998.19;5092215;28;19970;-94
2023/05/11 01:06:45;;;;;;;;;;;;;;;16.89;51.51;101998.06;5084283;28;20407;-91
2023/05/11 01:09:33;;;;;;;;;;;;;;;16.87;51.45;102000.63;5051498;28;19924;-94
2023/05/11 01:12:03;;;;;;;;;;;;;;;16.91;51.52;102003.41;5086131;28;20321;-92
2023/05/11 01:14:41;;;;;;;;;;;;;;;16.92;51.48;102007.88;5063722;28;20007;-93
2023/05/11 01:17:10;;;;;;;;;;;;;;;17.10;50.93;101998.16;5084281;28;19916;-92
2023/05/11 01:19:41;;;;;;;;;;;;;;;16.86;52.29;102003.19;5066217;28;20389;-93
2023/05/11 01:22:39;;;;;;;;;;;;;;;16.71;54.14;102008.59;5077060;28;19923;-95
2023/05/11 01:25:06;;;;;;;;;;;;;;;16.51;55.57;102001.41;5039934;28;19924;-93
2023/05/11 01:28:01;;;;;;;;;;;;;;;16.40;56.33;102000.88;5090574;28;19928;-94
2023/05/11 01:30:34;;;;;;;;;;;;;;;16.60;54.81;102007.16;5094055;28;19920;-94
2023/05/11 01:33:05;;;;;;;;;;;;;;;16.67;53.39;102002.25;5071285;28;19930;-96
2023/05/11 01:35:49;;;;;;;;;;;;;;;16.74;52.90;101999.91;5057302;28;19920;-95
2023/05/11 01:38:17;;;;;;;;;;;;;;;16.88;52.12;102001.53;5093861;28;19927;-95
2023/05/11 01:40:43;;;;;;;;;;;;;;;16.85;52.07;101996.13;5074840;28;20052;-94
2023/05/11 01:43:12;;;;;;;;;;;;;;;16.95;51.74;101992.16;5063955;28;19927;-96
2023/05/11 01:45:41;;;;;;;;;;;;;;;16.93;51.45;101994.72;5055397;28;19973;-94
2023/05/11 01:48:08;;;;;;;;;;;;;;;16.89;51.39;101992.78;5058096;28;19934;-94
2023/05/11 01:51:00;;;;;;;;;;;;;;;16.88;51.53;101991.88;5058242;28;19920;-93
2023/05/11 01:53:45;;;;;;;;;;;;;;;16.96;51.26;101992.25;5061835;28;19927;-93
2023/05/11 01:56:16;;;;;;;;;;;;;;;16.83;51.37;101990.75;5074108;28;20732;-91
2023/05/11 01:59:02;;;;;;;;;;;;;;;16.81;51.59;101994.16;5069626;28;19920;-93
2023/05/11 02:01:36;;;;;;;;;;;;;;;16.86;51.10;102001.44;5072235;28;19981;-95
2023/05/11 02:07:05;;;;;;;;;;;;;;;16.77;51.40;102000.97;5092551;28;19931;-95
2023/05/11 02:09:33;;;;;;;;;;;;;;;16.76;52.28;101993.88;5049674;28;19920;-92
2023/05/11 02:11:58;;;;;;;;;;;;;;;16.49;54.22;101993.47;5075914;28;19923;-88
2023/05/11 02:14:32;;;;;;;;;;;;;;;16.33;55.53;101991.78;5060505;28;19920;-93
2023/05/11 02:17:04;;;;;;;;;;;;;;;16.26;56.05;101992.31;5058357;28;19920;-93
2023/05/11 02:19:30;;;;;;;;;;;;;;;16.37;55.49;101988.47;5066883;28;19993;-92
2023/05/11 02:22:07;;;;;;;;;;;;;;;16.61;53.63;101985.22;5056971;28;19928;-94
2023/05/11 02:24:36;;;;;;;;;;;;;;;16.56;53.08;101982.38;5073457;28;19946;-93
2023/05/11 02:27:02;;;;;;;;;;;;;;;16.60;52.63;101983.44;5074811;28;19919;-91
2023/05/11 02:29:34;;;;;;;;;;;;;;;16.56;52.49;101978.84;5089694;28;20468;-92
2023/05/11 02:32:05;;;;;;;;;;;;;;;16.68;52.00;101985.59;5074414;28;19924;-92
2023/05/11 02:34:35;;;;;;;;;;;;;;;16.71;51.83;101982.22;5057269;28;19927;-90
2023/05/11 02:37:01;;;;;;;;;;;;;;;16.54;52.06;101984.03;5074154;28;19920;-92
2023/05/11 02:39:50;;;;;;;;;;;;;;;16.63;51.73;101976.56;5072207;28;19916;-92
2023/05/11 02:42:25;;;;;;;;;;;;;;;16.66;51.69;101994.28;5061457;28;19924;-92
2023/05/11 02:45:22;;;;;;;;;;;;;;;16.62;51.64;101992.31;5057203;28;19938;-92
2023/05/11 02:48:07;;;;;;;;;;;;;;;16.61;51.52;101993.13;5074261;28;19920;-93
2023/05/11 02:50:40;;;;;;;;;;;;;;;16.63;51.44;101997.66;5063071;28;20387;-94
2023/05/11 02:53:09;;;;;;;;;;;;;;;16.60;51.40;101989.59;5067887;28;19921;-92
2023/05/11 02:58:37;;;;;;;;;;;;;;;16.69;51.41;101990.03;5076582;28;19981;-94
2023/05/11 03:01:08;;;;;;;;;;;;;;;16.49;53.43;101989.09;5069292;28;19963;-92
2023/05/11 03:03:33;;;;;;;;;;;;;;;16.33;54.85;101996.16;5083559;28;20380;-93
2023/05/11 03:06:11;;;;;;;;;;;;;;;16.10;56.01;102000.25;5059966;28;19926;-90
2023/05/11 03:08:41;;;;;;;;;;;;;;;16.00;56.51;101990.97;5070187;28;19924;-91
2023/05/11 03:11:08;;;;;;;;;;;;;;;16.39;54.53;101991.19;5060695;28;20351;-91
2023/05/11 03:13:50;;;;;;;;;;;;;;;16.43;53.25;101995.78;5073952;28;19927;-92
2023/05/11 03:16:15;;;;;;;;;;;;;;;16.36;52.85;101991.00;5087728;28;19931;-92
2023/05/11 03:18:45;;;;;;;;;;;;;;;16.56;52.26;101994.66;5071237;28;19928;-93
2023/05/11 03:21:10;;;;;;;;;;;;;;;16.52;52.13;102001.50;5066432;28;20016;-92
2023/05/11 03:23:36;;;;;;;;;;;;;;;16.48;52.16;102004.81;5053240;28;20011;-91
2023/05/11 03:26:10;;;;;;;;;;;;;;;16.55;51.82;102006.94;5074878;28;19920;-90
2023/05/11 03:28:36;;;;;;;;;;;;;;;16.46;51.88;102006.47;5057724;28;19920;-91
2023/05/11 03:31:04;;;;;;;;;;;;;;;16.56;51.62;102013.13;5090667;28;19924;-91
2023/05/11 03:33:42;;;;;;;;;;;;;;;16.50;51.68;102003.16;5073849;28;19924;-91
2023/05/11 03:36:15;;;;;;;;;;;;;;;16.60;51.52;102015.09;5080538;28;19990;-93
2023/05/11 03:38:40;;;;;;;;;;;;;;;16.49;51.48;102010.19;5092323;28;19966;-94
2023/05/11 03:41:06;;;;;;;;;;;;;;;16.47;51.66;102010.94;5045333;28;19912;-89
2023/05/11 03:43:39;;;;;;;;;;;;;;;16.52;51.48;102012.06;5050470;28;20039;-90
2023/05/11 03:46:09;;;;;;;;;;;;;;;16.56;51.43;102006.09;5076965;28;19916;-96
2023/05/11 03:48:34;;;;;;;;;;;;;;;16.64;51.24;102012.66;5541966;22;19924;-95
2023/05/11 03:51:34;;;;;;;;;;;;;;;16.53;53.18;102018.22;5063119;28;19921;-93
2023/05/11 03:54:10;;;;;;;;;;;;;;;16.35;54.46;102012.94;5084517;28;19920;-95
2023/05/11 03:59:47;;;;;;;;;;;;;;;16.19;55.39;102020.09;5083831;28;20312;-94
2023/05/11 04:02:23;;;;;;;;;;;;;;;16.41;53.61;102018.53;5049764;28;19927;-93
2023/05/11 04:04:53;;;;;;;;;;;;;;;16.29;53.25;102014.44;5071512;28;19929;-92
2023/05/11 04:07:48;;;;;;;;;;;;;;;16.35;52.68;102026.13;5047213;28;19989;-93
2023/05/11 04:13:16;;;;;;;;;;;;;;;16.46;52.07;102019.66;5087103;28;20316;-93
2023/05/11 04:15:41;;;;;;;;;;;;;;;16.47;51.77;102022.38;5052114;28;19921;-94
2023/05/11 04:18:20;;;;;;;;;;;;;;;16.54;51.43;102023.59;5071110;28;20304;-94
2023/05/11 04:20:48;;;;;;;;;;;;;;;16.62;51.33;102021.34;5064347;28;19920;-94
2023/05/11 04:23:14;;;;;;;;;;;;;;;16.56;51.29;102024.56;5092574;28;20383;-91
2023/05/11 04:25:39;;;;;;;;;;;;;;;16.43;51.65;102025.69;5086282;28;19926;-94
2023/05/11 04:28:05;;;;;;;;;;;;;;;16.40;51.64;102028.19;5072451;28;19928;-95
2023/05/11 04:30:35;;;;;;;;;;;;;;;16.39;51.59;102034.25;5062915;28;20015;-93
2023/05/11 04:33:05;;;;;;;;;;;;;;;16.54;51.41;102033.22;5072897;28;19999;-93
2023/05/11 04:35:31;;;;;;;;;;;;;;;16.45;51.46;102033.69;5090159;28;20404;-93
2023/05/11 04:38:01;;;;;;;;;;;;;;;16.30;51.54;102025.91;5075049;28;20045;-95
2023/05/11 04:40:47;;;;;;;;;;;;;;;16.28;53.34;102030.19;5071005;28;19948;-96
2023/05/11 04:43:14;;;;;;;;;;;;;;;16.16;54.75;102032.19;5075931;28;20452;-95
2023/05/11 04:45:40;;;;;;;;;;;;;;;16.07;55.76;102030.88;5075026;28;19924;-93
2023/05/11 04:48:05;;;;;;;;;;;;;;;15.85;56.62;102036.78;5074368;28;19995;-94
2023/05/11 04:50:34;;;;;;;;;;;;;;;16.23;54.76;102034.31;5081541;28;19927;-96
2023/05/11 04:53:02;;;;;;;;;;;;;;;16.38;53.45;102035.13;5094810;28;19924;-96
2023/05/11 04:55:28;;;;;;;;;;;;;;;16.39;52.80;102036.91;5081649;28;19927;-95
2023/05/11 04:58:06;;;;;;;;;;;;;;;16.38;52.54;102050.00;5061125;28;19924;-96
2023/05/11 05:00:40;;;;;;;;;;;;;;;16.35;52.47;102056.03;5079835;28;19920;-95
2023/05/11 05:03:25;;;;;;;;;;;;;;;16.27;52.38;102053.00;5071181;28;19932;-95
2023/05/11 05:09:10;;;;;;;;;;;;;;;16.39;51.97;102055.34;5100264;28;19926;-91
2023/05/11 05:11:54;;;;;;;;;;;;;;;16.42;51.66;102049.34;5086079;28;19983;-92
2023/05/11 05:14:25;;;;;;;;;;;;;;;16.29;52.18;102053.97;5074797;28;20361;-94
2023/05/11 05:16:53;;;;;;;;;;;;;;;16.41;51.77;102058.09;5077565;28;19925;-94
2023/05/11 05:19:22;;;;;;;;;;;;;;;16.24;52.15;102062.50;5092407;28;19960;-93
2023/05/11 05:21:51;;;;;;;;;;;;;;;16.19;52.22;102061.31;5067589;28;20408;-92
2023/05/11 05:24:27;;;;;;;;;;;;;;;16.35;51.84;102068.31;5094451;28;20302;-95
2023/05/11 05:26:56;;;;;;;;;;;;;;;16.44;51.56;102067.03;5057129;28;19920;-95
2023/05/11 05:29:34;;;;;;;;;;;;;;;16.26;52.77;102067.00;5099974;28;19924;-95
2023/05/11 05:34:35;;;;;;;;;;;;;;;16.09;55.46;102062.59;5470507;22;19932;-94
2023/05/11 05:37:49;;;;;;;;;;;;;;;15.93;56.39;102068.78;5078617;28;19924;-86
2023/05/11 05:40:36;;;;;;;;;;;;;;;16.13;55.12;102059.31;5101697;28;19931;-95
2023/05/11 05:43:22;;;;;;;;;;;;;;;16.15;53.87;102060.28;5072579;28;19920;-96
2023/05/11 05:45:49;;;;;;;;;;;;;;;16.22;53.20;102062.41;5101618;28;19947;-96
2023/05/11 05:48:16;;;;;;;;;;;;;;;16.29;52.68;102063.63;5064603;28;19917;-95
2023/05/11 05:50:44;;;;;;;;;;;;;;;16.13;52.91;102063.63;5068296;28;19962;-93
2023/05/11 05:53:12;;;;;;;;;;;;;;;16.27;52.60;102067.91;5065417;28;19951;-92
2023/05/11 05:55:38;;;;;;;;;;;;;;;16.36;52.06;102068.41;5065684;28;20449;-90
2023/05/11 05:58:03;;;;;;;;;;;;;;;16.40;52.01;102080.91;5079059;28;19948;-90
2023/05/11 06:00:39;;;;;;;;;;;;;;;16.29;52.00;102072.41;5048607;28;20297;-92
2023/05/11 06:03:06;;;;;;;;;;;;;;;16.45;51.68;102079.41;5095325;28;19965;-91
2023/05/11 06:05:34;;;;;;;;;;;;;;;16.29;51.91;102076.81;5052751;28;19916;-91
2023/05/11 06:08:03;;;;;;;;;;;;;;;16.28;51.95;102075.00;5078800;28;19920;-91
2023/05/11 06:10:37;;;;;;;;;;;;;;;16.44;51.40;102082.84;5079977;28;20297;-90
2023/05/11 06:13:08;;;;;;;;;;;;;;;16.42;51.40;102080.97;5060387;28;19915;-92
2023/05/11 06:15:37;;;;;;;;;;;;;;;16.36;51.71;102085.91;5077512;28;19920;-90
2023/05/11 06:18:04;;;;;;;;;;;;;;;16.37;51.61;102091.28;5077887;28;19922;-90
2023/05/11 06:20:32;;;;;;;;;;;;;;;16.16;53.62;102098.97;5060137;28;20664;-92
2023/05/11 06:22:58;;;;;;;;;;;;;;;15.97;55.36;102096.19;5089271;28;19919;-90
2023/05/11 06:25:24;;;;;;;;;;;;;;;15.75;56.87;102094.16;5046156;28;19916;-91
2023/05/11 06:27:50;;;;;;;;;;;;;;;15.75;57.19;102095.06;5052867;28;19930;-89
2023/05/11 06:30:23;;;;;;;;;;;;;;;15.82;56.03;102093.66;5072512;28;19964;-92
2023/05/11 06:32:51;;;;;;;;;;;;;;;16.05;54.37;102102.78;5051559;28;19964;-92
2023/05/11 06:38:49;;;;;;;;;;;;;;;16.20;52.96;102103.59;5091824;28;19927;-93
2023/05/11 06:41:24;;;;;;;;;;;;;;;16.17;52.83;102105.16;5061612;28;19950;-94
2023/05/11 06:46:53;;;;;;;;;;;;;;;16.26;52.28;102097.75;5071897;28;19927;-95
2023/05/11 06:52:58;;;;;;;;;;;;;;;16.25;52.19;102104.72;5064948;28;20297;-93
2023/05/11 06:55:56;;;;;;;;;;;;;;;16.24;52.03;102118.75;5067211;28;20309;-96
2023/05/11 06:58:43;;;;;;;;;;;;;;;16.21;52.07;102125.56;5030765;28;19913;-96
2023/05/11 07:01:12;;;;;;;;;;;;;;;16.31;51.77;102121.69;5055434;28;19944;-96
2023/05/11 07:03:48;;;;;;;;;;;;;;;16.29;51.84;102130.41;5077150;28;19917;-93
2023/05/11 07:06:16;;;;;;;;;;;;;;;16.43;51.33;102123.25;5054052;28;19917;-94
2023/05/11 07:09:12;;;;;;;;;;;;;;;16.25;51.91;102131.06;5049354;28;19917;-91
2023/05/11 07:11:39;;;;;;;;;;;;;;;15.93;55.09;102124.09;5043019;28;19921;-93
2023/05/11 07:14:07;;;;;;;;;;;;;;;15.81;56.48;102126.06;5042730;28;19962;-95
2023/05/11 07:16:59;;;;;;;;;;;;;;;15.72;57.25;102129.13;5030375;28;19920;-96
2023/05/11 07:19:25;;;;;;;;;;;;;;;15.95;56.23;102119.81;5065388;28;20368;-93
2023/05/11 07:21:57;;;;;;;;;;;;;;;16.08;54.66;102116.13;5043989;28;19955;-94
2023/05/11 07:24:28;;;;;;;;;;;;;;;16.19;53.61;102114.03;5052014;28;19942;-93
2023/05/11 07:26:58;;;;;;;;;;;;;;;16.10;53.45;102114.47;5065945;28;19916;-92
2023/05/11 07:29:24;;;;;;;;;;;;;;;16.10;53.17;102114.47;5057406;28;19928;-94
2023/05/11 07:31:50;;;;;;;;;;;;;;;16.12;53.04;102120.72;5051641;28;19917;-93
2023/05/11 07:34:33;;;;;;;;;;;;;;;16.13;52.77;102117.28;5038172;28;19916;-93
2023/05/11 07:37:07;;;;;;;;;;;;;;;16.24;52.36;102109.94;5058014;28;20585;-93
2023/05/11 07:39:33;;;;;;;;;;;;;;;16.33;51.98;102120.94;5059286;28;19924;-90
2023/05/11 07:41:58;;;;;;;;;;;;;;;16.27;52.08;102126.78;5069033;28;19969;-90
2023/05/11 07:44:24;;;;;;;;;;;;;;;16.26;52.13;102129.38;5069930;28;20007;-88
2023/05/11 07:46:49;;;;;;;;;;;;;;;16.33;51.97;102122.69;5054817;28;20044;-91
2023/05/11 07:49:15;;;;;;;;;;;;;;;16.40;51.56;102131.00;5053435;28;19919;-90
2023/05/11 07:51:40;;;;;;;;;;;;;;;16.37;51.59;102137.84;5060192;28;19920;-88
2023/05/11 07:54:07;;;;;;;;;;;;;;;16.34;51.63;102128.06;5064021;28;20426;-88
2023/05/11 07:56:32;;;;;;;;;;;;;;;16.33;51.52;102126.22;5080446;28;19924;-88
2023/05/11 07:58:57;;;;;;;;;;;;;;;16.33;52.23;102125.31;5081174;28;19916;-88
2023/05/11 08:01:24;;;;;;;;;;;;;;;16.13;54.59;102130.47;5072509;28;19967;-88
2023/05/11 08:03:50;;;;;;;;;;;;;;;15.88;56.15;102126.50;5076876;28;19919;-88
2023/05/11 08:06:16;;;;;;;;;;;;;;;15.81;57.02;102129.63;5057442;28;19912;-88
2023/05/11 08:08:42;;;;;;;;;;;;;;;15.81;57.15;102123.44;5070365;28;19938;-88
2023/05/11 08:11:08;;;;;;;;;;;;;;;16.01;55.22;102121.91;5076953;28;20365;-89
2023/05/11 08:13:34;;;;;;;;;;;;;;;16.11;54.00;102129.47;5077133;28;19918;-88
2023/05/11 08:15:59;;;;;;;;;;;;;;;16.20;53.47;102124.69;5069706;28;20328;-88
2023/05/11 08:18:26;;;;;;;;;;;;;;;16.23;52.88;102127.50;5074652;28;19955;-87
2023/05/11 08:20:52;;;;;;;;;;;;;;;16.24;52.79;102129.28;5076775;28;19955;-88
2023/05/11 08:23:17;;;;;;;;;;;;;;;16.35;52.26;102118.41;5046783;28;19955;-89
2023/05/11 08:25:50;;;;;;;;;;;;;;;16.38;51.98;102121.19;5060325;28;19912;-88
2023/05/11 08:28:17;;;;;;;;;;;;;;;16.41;51.91;102124.00;5094591;28;20290;-87
2023/05/11 08:30:42;;;;;;;;;;;;;;;16.41;51.85;102119.63;5050805;28;20496;-86
2023/05/11 08:33:07;;;;;;;;;;;;;;;16.53;51.61;102124.63;5075654;28;20070;-87
2023/05/11 08:35:33;;;;;;;;;;;;;;;16.46;51.58;102122.50;5058745;28;19920;-87
2023/05/11 08:37:58;;;;;;;;;;;;;;;16.45;51.79;102121.59;5076940;28;20405;-88
2023/05/11 08:40:25;;;;;;;;;;;;;;;16.46;51.48;102123.38;5072624;28;20395;-89
2023/05/11 08:42:50;;;;;;;;;;;;;;;16.44;51.99;102119.75;5073619;28;19988;-88
2023/05/11 08:45:15;;;;;;;;;;;;;;;16.54;51.50;102121.16;5083527;28;19912;-89
2023/05/11 08:47:41;;;;;;;;;;;;;;;16.53;51.16;102127.28;5101915;28;20372;-89
2023/05/11 08:50:06;;;;;;;;;;;;;;;16.45;53.11;102128.59;5069125;28;19963;-88
2023/05/11 08:52:33;;;;;;;;;;;;;;;16.20;55.52;102124.69;5064843;28;20305;-90
2023/05/11 08:54:58;;;;;;;;;;;;;;;16.19;56.57;102127.22;5070813;28;19916;-86
2023/05/11 08:57:24;;;;;;;;;;;;;;;16.16;57.28;102129.72;5064132;28;19978;-89
2023/05/11 08:59:50;;;;;;;;;;;;;;;16.21;56.17;102138.75;5072133;28;20301;-86
2023/05/11 09:02:16;;;;;;;;;;;;;;;16.35;54.56;102139.50;5072117;28;20007;-86
2023/05/11 09:04:42;;;;;;;;;;;;;;;16.39;53.75;102126.53;5072043;28;19917;-88
2023/05/11 09:07:08;;;;;;;;;;;;;;;16.47;53.38;102125.22;5085644;28;19923;-84
2023/05/11 09:09:34;;;;;;;;;;;;;;;16.54;52.99;102123.78;5061905;28;19962;-88
2023/05/11 09:11:59;;;;;;;;;;;;;;;16.60;52.67;102121.47;5075253;28;19912;-89
2023/05/11 09:14:26;;;;;;;;;;;;;;;16.60;52.90;102120.56;5075317;28;19943;-88
2023/05/11 09:16:51;;;;;;;;;;;;;;;16.66;52.37;102113.88;5058442;28;19915;-88
2023/05/11 09:19:17;;;;;;;;;;;;;;;16.67;52.48;102112.13;5091912;28;19922;-87
2023/05/11 09:21:42;;;;;;;;;;;;;;;16.72;52.43;102115.94;5075228;28;20397;-88
2023/05/11 09:24:09;;;;;;;;;;;;;;;16.72;52.07;102115.00;5070616;28;19912;-87
2023/05/11 09:26:35;;;;;;;;;;;;;;;16.77;52.41;102122.34;5093177;28;19912;-88
2023/05/11 09:29:00;;;;;;;;;;;;;;;16.78;52.21;102120.59;5075305;28;19916;-88
2023/05/11 09:31:46;;;;;;;;;;;;;;;16.75;52.13;102118.72;5093521;28;19955;-88
2023/05/11 09:34:21;;;;;;;;;;;;;;;16.79;52.10;102114.50;5092615;28;20031;-88
2023/05/11 09:36:50;;;;;;;;;;;;;;;16.82;52.25;102114.69;5075175;28;20407;-87
2023/05/11 09:39:18;;;;;;;;;;;;;;;16.82;53.52;102125.22;5065831;28;19916;-88
2023/05/11 09:41:44;;;;;;;;;;;;;;;16.69;55.68;102127.19;5089494;28;19916;-88
2023/05/11 09:44:10;;;;;;;;;;;;;;;16.56;57.11;102121.25;5085370;28;20412;-89
2023/05/11 09:46:43;;;;;;;;;;;;;;;16.55;57.94;102133.53;5086936;28;19912;-86
2023/05/11 09:49:08;;;;;;;;;;;;;;;16.55;57.21;102124.69;5055054;28;19979;-89
2023/05/11 09:51:35;;;;;;;;;;;;;;;16.67;55.48;102122.69;5071471;28;19913;-87
2023/05/11 09:54:03;;;;;;;;;;;;;;;16.77;54.26;102129.34;5075169;28;19912;-89
2023/05/11 09:56:47;;;;;;;;;;;;;;;16.82;53.74;102127.88;5074334;28;19923;-87
2023/05/11 09:59:36;;;;;;;;;;;;;;;16.85;53.43;102128.03;5074334;28;20395;-88
2023/05/11 10:02:20;;;;;;;;;;;;;;;16.93;52.77;102124.03;5082261;28;19916;-88
2023/05/11 10:04:46;;;;;;;;;;;;;;;16.98;53.08;102132.19;5079891;28;19991;-89
2023/05/11 10:07:22;;;;;;;;;;;;;;;17.03;52.36;102125.41;5074705;28;20029;-89
2023/05/11 10:09:49;;;;;;;;;;;;;;;17.04;52.33;102125.47;5070088;28;19919;-89
2023/05/11 10:12:16;;;;;;;;;;;;;;;17.07;52.11;102125.63;5071131;28;19923;-92
2023/05/11 10:14:42;;;;;;;;;;;;;;;17.07;51.92;102125.63;5072058;28;19925;-91
2023/05/11 10:17:09;;;;;;;;;;;;;;;17.10;51.69;102114.28;5073249;28;19939;-91
2023/05/11 10:19:34;;;;;;;;;;;;;;;17.18;51.41;102115.56;5061001;28;19924;-90
2023/05/11 10:22:00;;;;;;;;;;;;;;;17.17;51.37;102113.78;5051284;28;19916;-90
2023/05/11 10:24:25;;;;;;;;;;;;;;;17.19;51.27;102112.13;5048851;28;20508;-90
2023/05/11 10:26:50;;;;;;;;;;;;;;;17.22;51.10;102109.63;5073951;28;20396;-89
2023/05/11 10:29:18;;;;;;;;;;;;;;;17.18;52.29;102101.47;5073819;28;20360;-89
2023/05/11 10:31:44;;;;;;;;;;;;;;;16.96;54.59;102112.75;5073291;28;19965;-89
2023/05/11 10:34:10;;;;;;;;;;;;;;;16.81;56.16;102102.31;5056780;28;19919;-89
2023/05/11 10:36:36;;;;;;;;;;;;;;;16.77;56.71;102103.88;5061658;28;19920;-90
2023/05/11 10:39:01;;;;;;;;;;;;;;;16.74;56.42;102108.97;5066076;28;20699;-85
2023/05/11 10:41:34;;;;;;;;;;;;;;;16.89;54.61;102099.25;5071368;28;20456;-86
2023/05/11 10:44:07;;;;;;;;;;;;;;;17.08;53.47;102105.41;5054856;28;19951;-86
2023/05/11 10:46:38;;;;;;;;;;;;;;;17.12;52.89;102110.00;5073400;28;19916;-86
2023/05/11 10:49:07;;;;;;;;;;;;;;;17.25;52.25;102108.84;5091691;28;20373;-86
2023/05/11 10:51:35;;;;;;;;;;;;;;;17.25;51.82;102111.50;5091449;28;20419;-86
2023/05/11 10:54:13;;;;;;;;;;;;;;;17.29;51.62;102106.47;5091757;28;20388;-86
2023/05/11 10:56:56;;;;;;;;;;;;;;;17.28;51.49;102109.03;5077814;28;19916;-86
2023/05/11 10:59:25;;;;;;;;;;;;;;;17.32;51.45;102105.69;5063470;28;20321;-86
2023/05/11 11:01:57;;;;;;;;;;;;;;;17.37;51.14;102105.91;5091229;28;19928;-86
2023/05/11 11:04:22;;;;;;;;;;;;;;;17.43;50.76;102103.56;5057473;28;20372;-86
2023/05/11 11:06:51;;;;;;;;;;;;;;;17.43;50.97;102100.94;5065053;28;19951;-87
2023/05/11 11:09:18;;;;;;;;;;;;;;;17.43;50.73;102101.81;5066905;28;19916;-86
2023/05/11 11:11:45;;;;;;;;;;;;;;;17.41;50.73;102094.66;5074897;28;19931;-85
2023/05/11 11:14:11;;;;;;;;;;;;;;;17.50;50.55;102105.66;5087534;28;19924;-86
2023/05/11 11:16:38;;;;;;;;;;;;;;;17.43;50.62;102106.22;5073181;28;19950;-86
2023/05/11 11:19:22;;;;;;;;;;;;;;;17.46;51.33;102104.63;5072926;28;19912;-85
2023/05/11 11:21:48;;;;;;;;;;;;;;;17.20;53.99;102108.63;5091574;28;19916;-86
2023/05/11 11:24:32;;;;;;;;;;;;;;;17.07;55.78;102111.53;5090607;28;19966;-86
2023/05/11 11:27:00;;;;;;;;;;;;;;;17.02;56.94;102105.13;5091572;28;19916;-86
2023/05/11 11:29:51;;;;;;;;;;;;;;;17.06;55.75;102110.63;5073083;28;19947;-86
2023/05/11 11:32:25;;;;;;;;;;;;;;;17.28;54.22;102099.34;5067734;28;19969;-86
2023/05/11 11:35:00;;;;;;;;;;;;;;;17.40;53.06;102095.47;5058458;28;19920;-86
2023/05/11 11:37:34;;;;;;;;;;;;;;;17.42;52.55;102088.53;5094343;28;19930;-86
2023/05/11 11:40:28;;;;;;;;;;;;;;;17.50;52.21;102082.81;5089843;28;19928;-87
2023/05/11 11:45:56;;;;;;;;;;;;;;;17.59;51.68;102084.97;5085433;28;19973;-87
2023/05/11 11:48:41;;;;;;;;;;;;;;;17.61;51.50;102077.09;5042904;28;19920;-85
2023/05/11 11:51:16;;;;;;;;;;;;;;;17.64;51.22;102087.81;5089412;28;19919;-85
2023/05/11 11:53:59;;;;;;;;;;;;;;;17.62;51.41;102085.09;5093784;28;20313;-86
2023/05/11 11:56:25;;;;;;;;;;;;;;;17.64;51.22;102078.16;5070473;28;19916;-85
2023/05/11 11:58:51;;;;;;;;;;;;;;;17.66;51.44;102080.88;5089038;28;19923;-86
2023/05/11 12:01:19;;;;;;;;;;;;;;;17.68;51.14;102077.47;5088401;28;19927;-86
2023/05/11 12:03:47;;;;;;;;;;;;;;;17.68;51.22;102080.09;5069779;28;19919;-86
2023/05/11 12:06:13;;;;;;;;;;;;;;;17.71;51.29;102079.31;5069710;28;19917;-86
2023/05/11 12:08:39;;;;;;;;;;;;;;;17.73;51.77;102076.75;5092233;28;20391;-85
2023/05/11 12:11:09;;;;;;;;;;;;;;;17.56;54.48;102087.44;5094862;28;19912;-85
2023/05/11 12:13:34;;;;;;;;;;;;;;;17.37;56.09;102079.50;5076472;28;19944;-86
2023/05/11 12:16:06;;;;;;;;;;;;;;;17.32;57.27;102073.13;5075766;28;20462;-85
2023/05/11 12:18:32;;;;;;;;;;;;;;;17.29;57.18;102064.22;5076320;28;19957;-86
2023/05/11 12:20:57;;;;;;;;;;;;;;;17.46;54.99;102061.44;5075197;28;20009;-85
2023/05/11 12:23:22;;;;;;;;;;;;;;;17.57;53.87;102056.66;5090238;28;19916;-87
2023/05/11 12:25:59;;;;;;;;;;;;;;;17.64;53.15;102054.38;5089897;28;20341;-86
2023/05/11 12:28:25;;;;;;;;;;;;;;;17.68;52.34;102048.41;5083888;28;19919;-86
2023/05/11 12:30:53;;;;;;;;;;;;;;;17.74;51.95;102036.28;5093987;28;19966;-86
2023/05/11 12:33:19;;;;;;;;;;;;;;;17.76;51.86;102040.81;5067910;28;19912;-87
2023/05/11 12:35:45;;;;;;;;;;;;;;;17.82;51.39;102030.56;5074466;28;20308;-86
2023/05/11 12:38:10;;;;;;;;;;;;;;;17.86;51.27;102024.59;5075026;28;20375;-86
2023/05/11 12:40:37;;;;;;;;;;;;;;;17.83;51.40;102024.44;5089287;28;19977;-86
2023/05/11 12:43:02;;;;;;;;;;;;;;;17.84;51.24;102022.69;5074465;28;19923;-86
2023/05/11 12:45:28;;;;;;;;;;;;;;;17.86;51.34;102013.09;5092319;28;19912;-87
2023/05/11 12:47:54;;;;;;;;;;;;;;;17.86;51.27;102023.66;5057454;28;20296;-88
2023/05/11 12:50:22;;;;;;;;;;;;;;;17.83;51.42;102019.16;5074495;28;19912;-88
2023/05/11 12:52:49;;;;;;;;;;;;;;;17.90;51.19;102009.75;5055374;28;19924;-87
2023/05/11 12:55:24;;;;;;;;;;;;;;;17.91;51.05;102014.22;5050177;28;19923;-87
2023/05/11 12:57:53;;;;;;;;;;;;;;;17.91;50.77;102014.22;5040959;28;20374;-87
2023/05/11 13:00:19;;;;;;;;;;;;;;;17.75;53.32;102015.22;5075761;28;20071;-87
2023/05/11 13:02:50;;;;;;;;;;;;;;;17.58;55.61;102016.22;5058186;28;19944;-87
2023/05/11 13:05:18;;;;;;;;;;;;;;;17.41;56.24;102013.69;5074975;28;19912;-87
2023/05/11 13:07:43;;;;;;;;;;;;;;;17.35;56.78;102018.69;5073745;28;19912;-88
2023/05/11 13:10:09;;;;;;;;;;;;;;;17.52;55.30;102011.53;5092843;28;19950;-87
2023/05/11 13:12:35;;;;;;;;;;;;;;;17.73;53.67;102003.69;5092098;28;19968;-87
2023/05/11 13:15:07;;;;;;;;;;;;;;;17.75;52.79;102009.94;5092262;28;20011;-86
2023/05/11 13:17:33;;;;;;;;;;;;;;;17.86;52.11;102015.72;5054595;28;19987;-86
2023/05/11 13:20:15;;;;;;;;;;;;;;;17.83;51.94;102005.94;5063512;28;19982;-86
2023/05/11 13:22:40;;;;;;;;;;;;;;;17.89;51.50;102013.25;5055844;28;19919;-86
2023/05/11 13:25:07;;;;;;;;;;;;;;;17.93;51.45;102008.97;5091069;28;19916;-86
2023/05/11 13:27:33;;;;;;;;;;;;;;;17.96;51.18;102001.19;5069575;28;19923;-87
2023/05/11 13:29:58;;;;;;;;;;;;;;;17.90;51.29;102000.06;5091303;28;20308;-86
2023/05/11 13:32:24;;;;;;;;;;;;;;;18.00;51.18;102005.78;5092615;28;20426;-88
2023/05/11 13:34:49;;;;;;;;;;;;;;;17.97;50.95;102008.28;5057466;28;19985;-88
2023/05/11 13:37:15;;;;;;;;;;;;;;;17.99;50.78;102003.94;5067509;28;19955;-88
2023/05/11 13:39:40;;;;;;;;;;;;;;;18.11;50.65;102009.78;5062721;28;20458;-86